createdAt,value
2023-05-02T00:00:11.539Z,28.83
2023-05-02T00:01:11.616Z,28.83
2023-05-02T00:02:11.765Z,28.83
2023-05-02T00:03:11.737Z,28.83
2023-05-02T00:04:11.847Z,28.83
2023-05-02T00:05:11.761Z,28.81
2023-05-02T00:06:11.809Z,28.82
2023-05-02T00:07:11.823Z,28.81
2023-05-02T00:08:11.868Z,28.80
2023-05-02T00:09:11.921Z,28.81
2023-05-02T00:10:11.959Z,28.82
2023-05-02T00:11:11.996Z,28.83
2023-05-02T00:12:12.034Z,28.82
2023-05-02T00:13:12.091Z,28.82
2023-05-02T00:14:12.154Z,28.82
2023-05-02T00:15:12.177Z,28.82
2023-05-02T00:16:12.211Z,28.82
2023-05-02T00:17:12.339Z,28.84
2023-05-02T00:18:12.322Z,28.82
2023-05-02T00:19:12.332Z,28.82
2023-05-02T00:20:12.378Z,28.79
2023-05-02T00:21:12.394Z,28.81
2023-05-02T00:22:12.421Z,28.80
2023-05-02T00:23:12.475Z,28.79
2023-05-02T00:24:12.524Z,28.81
2023-05-02T00:25:12.547Z,28.81
2023-05-02T00:26:12.615Z,28.81
2023-05-02T00:27:12.644Z,28.79
2023-05-02T00:28:12.672Z,28.80
2023-05-02T00:29:12.731Z,28.80
2023-05-02T00:30:12.777Z,28.80
2023-05-02T00:31:12.899Z,28.81
2023-05-02T00:32:12.845Z,28.81
2023-05-02T00:33:13.161Z,28.81
2023-05-02T00:34:12.938Z,28.80
2023-05-02T00:35:12.956Z,28.81
2023-05-02T00:36:12.988Z,28.81
2023-05-02T00:37:13.022Z,28.81
2023-05-02T00:38:13.055Z,28.77
2023-05-02T00:39:13.098Z,28.79
2023-05-02T00:40:13.192Z,28.78
2023-05-02T00:41:13.171Z,28.78
2023-05-02T00:42:13.218Z,28.80
2023-05-02T00:43:13.270Z,28.79
2023-05-02T00:44:13.295Z,28.75
2023-05-02T00:45:13.335Z,28.80
2023-05-02T00:46:13.460Z,28.78
2023-05-02T00:47:13.394Z,28.78
2023-05-02T00:48:13.511Z,28.80
2023-05-02T00:49:13.466Z,28.77
2023-05-02T00:50:13.495Z,28.77
2023-05-02T00:51:13.523Z,28.80
2023-05-02T00:52:13.577Z,28.78
2023-05-02T00:53:13.581Z,28.76
2023-05-02T00:54:13.635Z,28.79
2023-05-02T00:55:13.664Z,28.78
2023-05-02T00:56:13.725Z,28.77
2023-05-02T00:57:13.757Z,28.77
2023-05-02T00:58:13.781Z,28.76
2023-05-02T00:59:13.809Z,28.76
2023-05-02T01:00:13.846Z,28.78
2023-05-02T01:01:13.899Z,28.76
2023-05-02T01:02:13.954Z,28.73
2023-05-02T01:03:14.108Z,28.75
2023-05-02T01:04:14.078Z,28.74
2023-05-02T01:05:14.018Z,28.73
2023-05-02T01:06:14.070Z,28.76
2023-05-02T01:07:14.106Z,28.75
2023-05-02T01:08:14.119Z,28.76
2023-05-02T01:09:14.175Z,28.74
2023-05-02T01:10:14.207Z,28.74
2023-05-02T01:11:14.255Z,28.75
2023-05-02T01:12:14.250Z,28.74
2023-05-02T01:13:14.294Z,28.73
2023-05-02T01:14:14.316Z,28.75
2023-05-02T01:15:14.353Z,28.75
2023-05-02T01:16:14.485Z,28.75
2023-05-02T01:17:14.419Z,28.74
2023-05-02T01:18:14.513Z,28.74
2023-05-02T01:19:14.504Z,28.74
2023-05-02T01:20:14.532Z,28.73
2023-05-02T01:21:14.575Z,28.74
2023-05-02T01:22:14.618Z,28.73
2023-05-02T01:23:14.628Z,28.71
2023-05-02T01:24:14.660Z,28.74
2023-05-02T01:25:14.693Z,28.73
2023-05-02T01:26:14.721Z,28.75
2023-05-02T01:27:14.759Z,28.76
2023-05-02T01:28:14.779Z,28.72
2023-05-02T01:29:14.830Z,28.74
2023-05-02T01:30:14.832Z,28.74
2023-05-02T01:31:14.877Z,28.75
2023-05-02T01:32:14.911Z,28.73
2023-05-02T01:33:15.006Z,28.70
2023-05-02T01:34:14.991Z,28.73
2023-05-02T01:35:15.042Z,28.75
2023-05-02T01:36:15.066Z,28.73
2023-05-02T01:37:15.110Z,28.73
2023-05-02T01:38:15.144Z,28.73
2023-05-02T01:39:15.163Z,28.72
2023-05-02T01:40:15.215Z,28.72
2023-05-02T01:41:15.282Z,28.73
2023-05-02T01:42:15.292Z,28.73
2023-05-02T01:43:15.327Z,28.74
2023-05-02T01:44:15.367Z,28.73
2023-05-02T01:45:15.405Z,28.71
2023-05-02T01:46:15.469Z,28.72
2023-05-02T01:47:15.669Z,28.69
2023-05-02T01:48:15.530Z,28.72
2023-05-02T01:49:15.549Z,28.71
2023-05-02T01:50:15.594Z,28.68
2023-05-02T01:51:15.637Z,28.71
2023-05-02T01:52:15.657Z,28.70
2023-05-02T01:53:15.714Z,28.71
2023-05-02T01:54:15.725Z,28.71
2023-05-02T01:55:15.789Z,28.71
2023-05-02T01:56:15.811Z,28.71
2023-05-02T01:57:15.845Z,28.70
2023-05-02T01:58:15.891Z,28.72
2023-05-02T01:59:15.920Z,28.71
2023-05-02T02:00:15.966Z,28.71
2023-05-02T02:01:16.066Z,28.70
2023-05-02T02:02:16.050Z,28.69
2023-05-02T02:03:16.158Z,28.69
2023-05-02T02:04:16.164Z,28.67
2023-05-02T02:05:16.188Z,28.67
2023-05-02T02:06:16.264Z,28.68
2023-05-02T02:07:16.273Z,28.68
2023-05-02T02:08:16.315Z,28.69
2023-05-02T02:09:16.363Z,28.68
2023-05-02T02:10:16.404Z,28.67
2023-05-02T02:11:16.451Z,28.69
2023-05-02T02:12:16.496Z,28.67
2023-05-02T02:13:16.554Z,28.68
2023-05-02T02:14:16.571Z,28.68
2023-05-02T02:15:16.626Z,28.70
2023-05-02T02:16:16.702Z,28.69
2023-05-02T02:17:16.712Z,28.68
2023-05-02T02:18:16.747Z,28.67
2023-05-02T02:19:16.797Z,28.68
2023-05-02T02:20:16.825Z,28.65
2023-05-02T02:21:16.864Z,28.66
2023-05-02T02:22:16.893Z,28.64
2023-05-02T02:23:16.953Z,28.66
2023-05-02T02:24:16.981Z,28.67
2023-05-02T02:25:17.044Z,28.65
2023-05-02T02:26:17.078Z,28.66
2023-05-02T02:27:17.090Z,28.66
2023-05-02T02:28:17.133Z,28.66
2023-05-02T02:29:17.161Z,28.63
2023-05-02T02:30:17.209Z,28.66
2023-05-02T02:31:17.269Z,28.67
2023-05-02T02:32:17.275Z,28.65
2023-05-02T02:33:17.301Z,28.66
2023-05-02T02:34:17.371Z,28.64
2023-05-02T02:35:17.367Z,28.65
2023-05-02T02:36:17.399Z,28.63
2023-05-02T02:37:17.451Z,28.65
2023-05-02T02:38:17.476Z,28.64
2023-05-02T02:39:17.514Z,28.65
2023-05-02T02:40:17.552Z,28.64
2023-05-02T02:41:17.588Z,28.64
2023-05-02T02:42:17.629Z,28.63
2023-05-02T02:43:17.679Z,28.61
2023-05-02T02:44:17.711Z,28.63
2023-05-02T02:45:17.752Z,28.64
2023-05-02T02:46:17.792Z,28.61
2023-05-02T02:47:17.810Z,28.64
2023-05-02T02:48:17.898Z,28.63
2023-05-02T02:49:17.909Z,28.64
2023-05-02T02:50:17.939Z,28.63
2023-05-02T02:51:17.962Z,28.63
2023-05-02T02:52:18.033Z,28.64
2023-05-02T02:53:18.058Z,28.64
2023-05-02T02:54:26.469Z,28.62
2023-05-02T02:55:19.085Z,28.64
2023-05-02T02:56:18.068Z,28.64
2023-05-02T02:57:18.076Z,28.62
2023-05-02T02:58:18.057Z,28.61
2023-05-02T02:59:18.053Z,28.64
2023-05-02T03:00:18.028Z,28.60
2023-05-02T03:01:18.068Z,28.60
2023-05-02T03:02:18.019Z,28.62
2023-05-02T03:03:18.081Z,28.61
2023-05-02T03:04:18.166Z,28.62
2023-05-02T03:05:18.012Z,28.60
2023-05-02T03:06:18.078Z,28.62
2023-05-02T03:07:17.982Z,28.60
2023-05-02T03:08:18.035Z,28.60
2023-05-02T03:09:18.082Z,28.60
2023-05-02T03:10:18.106Z,28.61
2023-05-02T03:11:18.178Z,28.60
2023-05-02T03:12:18.200Z,28.61
2023-05-02T03:13:18.250Z,28.61
2023-05-02T03:14:18.311Z,28.57
2023-05-02T03:15:18.373Z,28.60
2023-05-02T03:16:18.439Z,28.60
2023-05-02T03:17:18.423Z,28.59
2023-05-02T03:18:18.497Z,28.62
2023-05-02T03:19:18.505Z,28.61
2023-05-02T03:20:18.543Z,28.59
2023-05-02T03:21:18.595Z,28.61
2023-05-02T03:22:18.668Z,28.58
2023-05-02T03:23:18.681Z,28.60
2023-05-02T03:24:19.470Z,28.58
2023-05-02T03:25:18.756Z,28.58
2023-05-02T03:26:18.806Z,28.57
2023-05-02T03:27:18.842Z,28.59
2023-05-02T03:28:18.962Z,28.58
2023-05-02T03:29:18.926Z,28.59
2023-05-02T03:30:18.965Z,28.57
2023-05-02T03:31:19.005Z,28.58
2023-05-02T03:32:19.041Z,28.61
2023-05-02T03:33:19.075Z,28.60
2023-05-02T03:34:19.141Z,28.59
2023-05-02T03:35:19.176Z,28.60
2023-05-02T03:36:19.210Z,28.59
2023-05-02T03:37:19.273Z,28.60
2023-05-02T03:38:19.292Z,28.59
2023-05-02T03:39:19.343Z,28.58
2023-05-02T03:40:19.383Z,28.60
2023-05-02T03:41:19.440Z,28.58
2023-05-02T03:42:19.481Z,28.59
2023-05-02T03:43:19.503Z,28.60
2023-05-02T03:44:19.600Z,28.57
2023-05-02T03:45:19.596Z,28.57
2023-05-02T03:46:19.643Z,28.59
2023-05-02T03:47:19.803Z,28.57
2023-05-02T03:48:19.738Z,28.60
2023-05-02T03:49:19.948Z,28.57
2023-05-02T03:50:19.817Z,28.59
2023-05-02T03:51:19.866Z,28.54
2023-05-02T03:52:19.915Z,28.57
2023-05-02T03:53:19.945Z,28.57
2023-05-02T03:54:20.005Z,28.58
2023-05-02T03:55:20.041Z,28.59
2023-05-02T03:56:20.186Z,28.60
2023-05-02T03:57:20.116Z,28.60
2023-05-02T03:58:20.156Z,28.58
2023-05-02T03:59:20.212Z,28.56
2023-05-02T04:00:20.261Z,28.58
2023-05-02T04:01:20.307Z,28.60
2023-05-02T04:02:20.403Z,28.56
2023-05-02T04:03:20.499Z,28.55
2023-05-02T04:04:20.470Z,28.60
2023-05-02T04:05:20.454Z,28.61
2023-05-02T04:06:20.534Z,28.59
2023-05-02T04:07:20.551Z,28.59
2023-05-02T04:08:20.596Z,28.58
2023-05-02T04:09:20.643Z,28.58
2023-05-02T04:10:20.703Z,28.57
2023-05-02T04:11:20.734Z,28.60
2023-05-02T04:12:20.776Z,28.58
2023-05-02T04:13:20.819Z,28.59
2023-05-02T04:14:20.870Z,28.62
2023-05-02T04:15:20.920Z,28.59
2023-05-02T04:16:21.092Z,28.59
2023-05-02T04:17:21.020Z,28.61
2023-05-02T04:18:21.056Z,28.59
2023-05-02T04:19:21.104Z,28.58
2023-05-02T04:20:21.131Z,28.58
2023-05-02T04:21:21.167Z,28.56
2023-05-02T04:22:21.216Z,28.59
2023-05-02T04:23:21.261Z,28.59
2023-05-02T04:24:21.301Z,28.61
2023-05-02T04:25:21.345Z,28.57
2023-05-02T04:26:21.381Z,28.59
2023-05-02T04:27:21.450Z,28.57
2023-05-02T04:28:21.485Z,28.58
2023-05-02T04:29:21.529Z,28.59
2023-05-02T04:30:21.603Z,28.57
2023-05-02T04:31:21.686Z,28.57
2023-05-02T04:32:21.675Z,28.59
2023-05-02T04:33:21.718Z,28.58
2023-05-02T04:34:21.755Z,28.61
2023-05-02T04:35:21.807Z,28.59
2023-05-02T04:36:21.842Z,28.60
2023-05-02T04:37:21.918Z,28.60
2023-05-02T04:38:21.941Z,28.60
2023-05-02T04:39:21.972Z,28.57
2023-05-02T04:40:22.033Z,28.63
2023-05-02T04:41:22.061Z,28.61
2023-05-02T04:42:22.103Z,28.58
2023-05-02T04:43:24.467Z,28.57
2023-05-02T04:44:22.381Z,28.58
2023-05-02T04:45:22.407Z,28.57
2023-05-02T04:46:22.521Z,28.58
2023-05-02T04:47:22.562Z,28.58
2023-05-02T04:48:22.589Z,28.57
2023-05-02T04:49:22.624Z,28.59
2023-05-02T04:50:22.628Z,28.59
2023-05-02T04:51:22.682Z,28.59
2023-05-02T04:52:22.738Z,28.60
2023-05-02T04:53:22.801Z,28.59
2023-05-02T04:54:22.817Z,28.58
2023-05-02T04:55:22.871Z,28.58
2023-05-02T04:56:22.901Z,28.59
2023-05-02T04:57:23.397Z,28.60
2023-05-02T04:58:22.972Z,28.57
2023-05-02T04:59:23.027Z,28.58
2023-05-02T05:00:23.071Z,28.57
2023-05-02T05:01:23.147Z,28.57
2023-05-02T05:02:23.216Z,28.59
2023-05-02T05:03:23.309Z,28.57
2023-05-02T05:04:23.312Z,28.60
2023-05-02T05:05:23.300Z,28.60
2023-05-02T05:06:23.354Z,28.56
2023-05-02T05:07:23.367Z,28.56
2023-05-02T05:08:23.412Z,28.59
2023-05-02T05:09:23.474Z,28.59
2023-05-02T05:10:23.521Z,28.58
2023-05-02T05:11:23.552Z,28.58
2023-05-02T05:12:23.599Z,28.58
2023-05-02T05:13:23.682Z,28.58
2023-05-02T05:14:23.716Z,28.59
2023-05-02T05:15:23.761Z,28.60
2023-05-02T05:16:23.827Z,28.60
2023-05-02T05:17:23.918Z,28.60
2023-05-02T05:18:23.875Z,28.60
2023-05-02T05:19:23.940Z,28.59
2023-05-02T05:20:23.965Z,28.58
2023-05-02T05:21:24.041Z,28.59
2023-05-02T05:22:24.095Z,28.59
2023-05-02T05:23:24.113Z,28.60
2023-05-02T05:24:24.155Z,28.60
2023-05-02T05:25:24.188Z,28.61
2023-05-02T05:26:24.245Z,28.62
2023-05-02T05:27:24.292Z,28.59
2023-05-02T05:28:24.321Z,28.57
2023-05-02T05:29:24.370Z,28.61
2023-05-02T05:30:24.416Z,28.58
2023-05-02T05:31:24.531Z,28.57
2023-05-02T05:32:24.566Z,28.75
2023-05-02T05:33:24.810Z,29.38
2023-05-02T05:34:24.599Z,30.23
2023-05-02T05:35:24.642Z,30.06
2023-05-02T05:36:24.682Z,29.84
2023-05-02T05:37:24.726Z,30.50
2023-05-02T05:38:24.759Z,30.34
2023-05-02T05:39:24.795Z,30.82
2023-05-02T05:40:24.828Z,31.61
2023-05-02T05:41:24.848Z,31.53
2023-05-02T05:42:24.885Z,31.23
2023-05-02T05:43:24.918Z,32.22
2023-05-02T05:44:24.940Z,32.01
2023-05-02T05:45:24.974Z,32.15
2023-05-02T05:46:25.041Z,32.03
2023-05-02T05:47:25.102Z,32.06
2023-05-02T05:48:25.052Z,32.32
2023-05-02T05:49:25.104Z,32.42
2023-05-02T05:50:25.055Z,32.40
2023-05-02T05:51:25.047Z,32.60
2023-05-02T05:52:25.090Z,32.59
2023-05-02T05:53:25.055Z,32.76
2023-05-02T05:54:25.057Z,32.95
2023-05-02T05:55:25.079Z,32.92
2023-05-02T05:56:25.067Z,32.98
2023-05-02T05:57:25.076Z,32.98
2023-05-02T05:58:25.064Z,33.01
2023-05-02T05:59:25.060Z,32.78
2023-05-02T06:00:25.068Z,33.00
2023-05-02T06:01:25.070Z,33.06
2023-05-02T06:02:25.140Z,33.08
2023-05-02T06:03:25.173Z,33.07
2023-05-02T06:04:25.139Z,33.13
2023-05-02T06:05:25.155Z,33.22
2023-05-02T06:06:25.211Z,33.27
2023-05-02T06:07:25.194Z,33.21
2023-05-02T06:08:25.220Z,33.17
2023-05-02T06:09:25.236Z,33.15
2023-05-02T06:10:25.260Z,33.24
2023-05-02T06:11:25.266Z,33.20
2023-05-02T06:12:25.615Z,33.30
2023-05-02T06:13:25.332Z,33.29
2023-05-02T06:14:25.375Z,33.40
2023-05-02T06:15:25.429Z,33.31
2023-05-02T06:16:25.536Z,33.26
2023-05-02T06:17:25.649Z,33.28
2023-05-02T06:18:25.577Z,33.27
2023-05-02T06:19:25.655Z,33.25
2023-05-02T06:20:25.708Z,33.26
2023-05-02T06:21:25.750Z,33.19
2023-05-02T06:22:25.847Z,32.86
2023-05-02T06:23:25.878Z,31.41
2023-05-02T06:24:25.918Z,31.38
2023-05-02T06:25:25.961Z,31.25
2023-05-02T06:26:25.980Z,31.15
2023-05-02T06:27:25.988Z,31.80
2023-05-02T06:28:25.977Z,31.38
2023-05-02T06:29:25.977Z,31.41
2023-05-02T06:30:25.999Z,31.99
2023-05-02T06:31:26.006Z,31.60
2023-05-02T06:32:26.138Z,31.94
2023-05-02T06:33:26.048Z,31.93
2023-05-02T06:34:26.112Z,31.99
2023-05-02T06:35:26.602Z,32.31
2023-05-02T06:36:26.143Z,32.36
2023-05-02T06:37:26.182Z,32.45
2023-05-02T06:38:26.166Z,32.70
2023-05-02T06:39:26.145Z,33.32
2023-05-02T06:40:26.617Z,33.14
2023-05-02T06:41:26.165Z,33.27
2023-05-02T06:42:26.166Z,33.31
2023-05-02T06:43:26.190Z,33.56
2023-05-02T06:44:26.175Z,33.60
2023-05-02T06:45:26.174Z,33.71
2023-05-02T06:46:26.342Z,33.73
2023-05-02T06:47:26.685Z,33.31
2023-05-02T06:48:26.269Z,33.12
2023-05-02T06:49:26.326Z,33.27
2023-05-02T06:50:26.437Z,33.25
2023-05-02T06:51:26.449Z,33.39
2023-05-02T06:52:26.527Z,33.52
2023-05-02T06:53:26.615Z,33.39
2023-05-02T06:54:26.626Z,33.25
2023-05-02T06:55:26.696Z,33.23
2023-05-02T06:56:26.754Z,33.40
2023-05-02T06:57:26.806Z,33.15
2023-05-02T06:58:26.871Z,33.17
2023-05-02T06:59:26.933Z,33.17
2023-05-02T07:00:27.151Z,33.47
2023-05-02T07:01:27.062Z,33.30
2023-05-02T07:02:27.189Z,33.20
2023-05-02T07:03:27.638Z,32.89
2023-05-02T07:04:28.133Z,32.90
2023-05-02T07:05:27.253Z,33.57
2023-05-02T07:06:27.342Z,33.51
2023-05-02T07:07:27.373Z,33.24
2023-05-02T07:08:27.427Z,33.06
2023-05-02T07:09:27.483Z,32.70
2023-05-02T07:10:27.521Z,32.74
2023-05-02T07:11:27.560Z,33.32
2023-05-02T07:12:27.620Z,33.28
2023-05-02T07:13:27.684Z,33.22
2023-05-02T07:14:28.129Z,33.18
2023-05-02T07:15:28.135Z,33.51
2023-05-02T07:16:27.821Z,33.27
2023-05-02T07:17:27.858Z,33.30
2023-05-02T07:18:27.887Z,33.20
2023-05-02T07:19:27.910Z,33.43
2023-05-02T07:20:27.955Z,33.22
2023-05-02T07:21:27.998Z,32.99
2023-05-02T07:22:28.147Z,32.54
2023-05-02T07:23:28.149Z,32.89
2023-05-02T07:24:28.109Z,32.89
2023-05-02T07:25:28.635Z,32.82
2023-05-02T07:26:28.187Z,33.04
2023-05-02T07:27:28.239Z,33.03
2023-05-02T07:28:28.636Z,33.30
2023-05-02T07:29:28.309Z,33.23
2023-05-02T07:30:28.637Z,33.59
2023-05-02T07:31:28.345Z,33.58
2023-05-02T07:32:28.455Z,33.67
2023-05-02T07:33:28.380Z,33.65
2023-05-02T07:34:28.350Z,33.60
2023-05-02T07:35:28.343Z,33.50
2023-05-02T07:36:28.383Z,33.67
2023-05-02T07:37:28.448Z,33.90
2023-05-02T07:38:28.537Z,33.94
2023-05-02T07:39:28.577Z,33.96
2023-05-02T07:40:28.585Z,33.86
2023-05-02T07:41:28.637Z,33.95
2023-05-02T07:42:28.660Z,33.82
2023-05-02T07:43:28.692Z,33.82
2023-05-02T07:44:28.701Z,33.79
2023-05-02T07:45:28.702Z,33.76
2023-05-02T07:46:28.788Z,33.80
2023-05-02T07:47:28.797Z,33.80
2023-05-02T07:48:28.763Z,33.74
2023-05-02T07:49:28.772Z,33.66
2023-05-02T07:50:28.791Z,33.62
2023-05-02T07:51:28.779Z,33.63
2023-05-02T07:52:28.811Z,33.60
2023-05-02T07:53:28.787Z,33.60
2023-05-02T07:54:28.793Z,33.61
2023-05-02T07:55:28.784Z,33.62
2023-05-02T07:56:28.779Z,33.52
2023-05-02T07:57:28.822Z,33.51
2023-05-02T07:58:28.807Z,33.50
2023-05-02T07:59:28.775Z,33.52
2023-05-02T08:00:28.786Z,33.47
2023-05-02T08:01:28.772Z,33.46
2023-05-02T08:02:28.870Z,33.47
2023-05-02T08:03:29.245Z,33.38
2023-05-02T08:04:28.915Z,33.35
2023-05-02T08:05:28.878Z,33.44
2023-05-02T08:06:28.970Z,33.32
2023-05-02T08:07:28.927Z,33.37
2023-05-02T08:08:28.991Z,33.44
2023-05-02T08:09:29.055Z,33.42
2023-05-02T08:10:29.151Z,33.41
2023-05-02T08:11:29.140Z,33.39
2023-05-02T08:12:29.220Z,33.44
2023-05-02T08:13:29.249Z,33.38
2023-05-02T08:14:29.315Z,33.43
2023-05-02T08:15:29.669Z,33.34
2023-05-02T08:16:29.976Z,33.41
2023-05-02T08:17:29.504Z,33.39
2023-05-02T08:18:29.533Z,33.27
2023-05-02T08:19:29.575Z,33.33
2023-05-02T08:20:29.657Z,33.41
2023-05-02T08:21:29.688Z,33.47
2023-05-02T08:22:29.760Z,33.37
2023-05-02T08:23:29.820Z,33.42
2023-05-02T08:24:29.869Z,33.31
2023-05-02T08:25:29.911Z,33.40
2023-05-02T08:26:29.996Z,33.33
2023-05-02T08:27:30.037Z,33.34
2023-05-02T08:28:30.081Z,33.25
2023-05-02T08:29:30.121Z,33.11
2023-05-02T08:30:30.190Z,33.16
2023-05-02T08:31:30.241Z,32.94
2023-05-02T08:32:30.330Z,33.13
2023-05-02T08:33:30.324Z,33.09
2023-05-02T08:34:30.361Z,33.03
2023-05-02T08:35:30.407Z,33.03
2023-05-02T08:36:30.441Z,33.10
2023-05-02T08:37:30.487Z,33.30
2023-05-02T08:38:30.670Z,33.23
2023-05-02T08:39:30.572Z,33.03
2023-05-02T08:40:41.446Z,32.87
2023-05-02T08:41:31.601Z,32.83
2023-05-02T08:42:30.603Z,32.09
2023-05-02T08:43:30.602Z,31.93
2023-05-02T08:44:30.594Z,31.37
2023-05-02T08:45:30.592Z,31.18
2023-05-02T08:46:30.583Z,30.94
2023-05-02T08:47:30.599Z,30.69
2023-05-02T08:48:30.653Z,30.43
2023-05-02T08:49:30.562Z,30.41
2023-05-02T08:50:30.671Z,30.28
2023-05-02T08:51:30.655Z,29.91
2023-05-02T08:52:30.716Z,29.95
2023-05-02T08:53:30.785Z,29.97
2023-05-02T08:54:30.853Z,29.97
2023-05-02T08:55:30.913Z,29.99
2023-05-02T08:56:30.955Z,30.06
2023-05-02T08:57:31.021Z,30.03
2023-05-02T08:58:31.081Z,30.10
2023-05-02T08:59:31.127Z,30.16
2023-05-02T09:00:31.171Z,30.19
2023-05-02T09:01:31.257Z,30.26
2023-05-02T09:02:31.278Z,30.27
2023-05-02T09:03:31.291Z,30.32
2023-05-02T09:04:31.376Z,30.33
2023-05-02T09:05:31.342Z,30.29
2023-05-02T09:06:31.381Z,30.30
2023-05-02T09:07:31.410Z,30.34
2023-05-02T09:08:31.422Z,30.35
2023-05-02T09:09:31.449Z,30.34
2023-05-02T09:10:31.483Z,30.31
2023-05-02T09:11:31.656Z,30.34
2023-05-02T09:12:31.587Z,30.37
2023-05-02T09:13:31.971Z,30.35
2023-05-02T09:14:31.813Z,30.32
2023-05-02T09:15:31.658Z,30.32
2023-05-02T09:16:31.735Z,30.33
2023-05-02T09:17:31.759Z,30.30
2023-05-02T09:18:31.765Z,30.30
2023-05-02T09:19:31.778Z,30.28
2023-05-02T09:20:31.847Z,30.24
2023-05-02T09:21:31.857Z,30.24
2023-05-02T09:22:31.880Z,30.20
2023-05-02T09:23:32.185Z,30.21
2023-05-02T09:24:31.913Z,30.19
2023-05-02T09:25:31.965Z,30.20
2023-05-02T09:26:32.126Z,30.50
2023-05-02T09:27:31.998Z,30.81
2023-05-02T09:28:32.189Z,31.14
2023-05-02T09:29:32.120Z,31.45
2023-05-02T09:30:32.692Z,31.38
2023-05-02T09:32:33.319Z,31.34
2023-05-02T09:33:32.703Z,31.23
2023-05-02T09:34:32.220Z,30.99
2023-05-02T09:35:32.237Z,30.63
2023-05-02T09:36:32.223Z,30.87
2023-05-02T09:37:32.214Z,30.60
2023-05-02T09:38:32.200Z,30.66
2023-05-02T09:39:32.280Z,30.70
2023-05-02T09:40:32.256Z,30.72
2023-05-02T09:41:32.301Z,30.69
2023-05-02T09:42:32.374Z,30.58
2023-05-02T09:43:32.421Z,30.95
2023-05-02T09:44:32.911Z,31.03
2023-05-02T09:45:32.569Z,30.89
2023-05-02T09:46:32.696Z,31.06
2023-05-02T09:47:32.702Z,31.07
2023-05-02T09:48:32.729Z,30.97
2023-05-02T09:49:32.759Z,31.16
2023-05-02T09:50:33.064Z,31.15
2023-05-02T09:51:32.865Z,31.19
2023-05-02T09:52:32.929Z,31.06
2023-05-02T09:53:32.960Z,30.74
2023-05-02T09:54:33.035Z,30.84
2023-05-02T09:55:33.076Z,30.86
2023-05-02T09:56:33.115Z,30.84
2023-05-02T09:57:33.178Z,30.91
2023-05-02T09:58:33.228Z,30.89
2023-05-02T09:59:33.278Z,30.40
2023-05-02T10:00:33.345Z,30.81
2023-05-02T10:01:33.398Z,30.79
2023-05-02T10:02:33.461Z,30.84
2023-05-02T10:03:33.570Z,30.78
2023-05-02T10:04:33.602Z,30.69
2023-05-02T10:05:33.696Z,30.72
2023-05-02T10:06:33.672Z,30.33
2023-05-02T10:07:33.667Z,30.69
2023-05-02T10:08:34.190Z,30.54
2023-05-02T10:09:33.762Z,30.52
2023-05-02T10:10:34.191Z,30.70
2023-05-02T10:11:33.866Z,30.51
2023-05-02T10:12:33.913Z,30.57
2023-05-02T10:13:33.985Z,30.53
2023-05-02T10:14:34.023Z,30.58
2023-05-02T10:15:34.181Z,30.55
2023-05-02T10:16:34.197Z,30.16
2023-05-02T10:17:34.264Z,30.10
2023-05-02T10:18:34.272Z,30.15
2023-05-02T10:19:34.301Z,30.05
2023-05-02T10:20:34.388Z,30.44
2023-05-02T10:21:34.423Z,30.35
2023-05-02T10:22:34.498Z,29.55
2023-05-02T10:23:34.710Z,29.45
2023-05-02T10:24:34.496Z,29.68
2023-05-02T10:25:34.534Z,29.65
2023-05-02T10:26:34.580Z,29.08
2023-05-02T10:27:34.636Z,28.76
2023-05-02T10:28:34.710Z,28.55
2023-05-02T10:29:34.727Z,28.63
2023-05-02T10:30:35.218Z,28.96
2023-05-02T10:31:34.768Z,29.10
2023-05-02T10:32:34.919Z,29.46
2023-05-02T10:33:34.864Z,29.62
2023-05-02T10:34:34.930Z,29.72
2023-05-02T10:35:34.971Z,29.98
2023-05-02T10:36:34.928Z,29.95
2023-05-02T10:37:34.936Z,30.32
2023-05-02T10:38:34.939Z,30.83
2023-05-02T10:39:34.918Z,30.64
2023-05-02T10:40:34.958Z,30.27
2023-05-02T10:41:34.953Z,30.25
2023-05-02T10:42:34.977Z,30.13
2023-05-02T10:43:35.029Z,30.18
2023-05-02T10:44:35.049Z,30.08
2023-05-02T10:45:35.050Z,30.44
2023-05-02T10:46:35.120Z,30.73
2023-05-02T10:47:35.143Z,30.85
2023-05-02T10:48:35.173Z,30.80
2023-05-02T10:49:35.182Z,30.84
2023-05-02T10:50:35.270Z,31.13
2023-05-02T10:51:35.295Z,31.05
2023-05-02T10:52:35.367Z,31.12
2023-05-02T10:53:35.390Z,31.22
2023-05-02T10:54:35.433Z,31.37
2023-05-02T10:55:35.535Z,31.56
2023-05-02T10:56:35.572Z,31.61
2023-05-02T10:57:35.606Z,31.76
2023-05-02T10:58:35.672Z,31.95
2023-05-02T10:59:35.741Z,31.93
2023-05-02T11:00:35.847Z,31.67
2023-05-02T11:01:35.839Z,31.71
2023-05-02T11:02:36.039Z,31.64
2023-05-02T11:03:36.243Z,31.54
2023-05-02T11:04:36.007Z,31.57
2023-05-02T11:05:36.078Z,32.48
2023-05-02T11:06:36.176Z,32.25
2023-05-02T11:07:36.132Z,32.10
2023-05-02T11:08:36.163Z,31.70
2023-05-02T11:09:36.209Z,31.46
2023-05-02T11:10:36.209Z,31.26
2023-05-02T11:11:36.198Z,31.15
2023-05-02T11:12:36.278Z,31.08
2023-05-02T11:13:36.313Z,31.61
2023-05-02T11:14:36.371Z,31.25
2023-05-02T11:15:36.792Z,30.85
2023-05-02T11:16:36.489Z,30.89
2023-05-02T11:17:36.500Z,30.82
2023-05-02T11:18:36.509Z,30.63
2023-05-02T11:19:36.544Z,30.51
2023-05-02T11:20:36.578Z,30.34
2023-05-02T11:21:36.560Z,30.25
2023-05-02T11:22:36.597Z,30.06
2023-05-02T11:23:36.584Z,29.91
2023-05-02T11:24:36.610Z,29.85
2023-05-02T11:25:36.620Z,29.96
2023-05-02T11:26:36.587Z,30.00
2023-05-02T11:27:36.623Z,30.04
2023-05-02T11:28:36.676Z,30.03
2023-05-02T11:29:36.639Z,29.86
2023-05-02T11:30:36.661Z,29.70
2023-05-02T11:31:36.728Z,29.68
2023-05-02T11:32:36.796Z,29.60
2023-05-02T11:33:36.780Z,29.56
2023-05-02T11:34:36.850Z,29.48
2023-05-02T11:35:36.925Z,29.39
2023-05-02T11:36:36.965Z,29.36
2023-05-02T11:37:37.069Z,29.31
2023-05-02T11:38:37.103Z,29.25
2023-05-02T11:39:37.144Z,29.22
2023-05-02T11:40:37.211Z,29.17
2023-05-02T11:41:37.255Z,29.12
2023-05-02T11:42:37.313Z,29.09
2023-05-02T11:43:37.360Z,29.07
2023-05-02T11:44:37.427Z,29.05
2023-05-02T11:45:37.481Z,29.04
2023-05-02T11:46:37.607Z,29.03
2023-05-02T11:47:37.576Z,28.96
2023-05-02T11:48:37.612Z,28.98
2023-05-02T11:49:37.645Z,28.97
2023-05-02T11:50:38.737Z,28.94
2023-05-02T11:51:37.746Z,28.92
2023-05-02T11:52:37.744Z,28.88
2023-05-02T11:53:37.783Z,28.83
2023-05-02T11:54:37.831Z,28.86
2023-05-02T11:55:37.885Z,28.76
2023-05-02T11:56:37.887Z,28.76
2023-05-02T11:57:37.946Z,28.77
2023-05-02T11:58:37.961Z,28.74
2023-05-02T11:59:38.004Z,28.72
2023-05-02T12:00:38.062Z,28.69
2023-05-02T12:01:38.069Z,28.68
2023-05-02T12:02:38.238Z,28.48
2023-05-02T12:03:38.268Z,28.57
2023-05-02T12:04:38.171Z,28.07
2023-05-02T12:05:38.228Z,27.74
2023-05-02T12:06:38.238Z,27.78
2023-05-02T12:07:38.316Z,27.89
2023-05-02T12:08:38.765Z,27.86
2023-05-02T12:09:38.375Z,27.82
2023-05-02T12:10:38.444Z,27.87
2023-05-02T12:11:38.564Z,27.95
2023-05-02T12:12:38.547Z,27.99
2023-05-02T12:13:38.607Z,28.03
2023-05-02T12:14:38.651Z,28.13
2023-05-02T12:15:38.739Z,28.22
2023-05-02T12:16:38.835Z,28.29
2023-05-02T12:17:38.873Z,28.31
2023-05-02T12:18:38.881Z,28.44
2023-05-02T12:19:38.950Z,28.48
2023-05-02T12:20:39.027Z,28.51
2023-05-02T12:21:39.059Z,28.56
2023-05-02T12:22:39.098Z,28.56
2023-05-02T12:23:39.114Z,28.61
2023-05-02T12:24:39.163Z,28.67
2023-05-02T12:25:39.199Z,28.68
2023-05-02T12:26:39.206Z,28.82
2023-05-02T12:27:39.266Z,28.72
2023-05-02T12:28:39.274Z,28.70
2023-05-02T12:29:39.296Z,28.69
2023-05-02T12:30:39.434Z,28.68
2023-05-02T12:31:39.419Z,28.69
2023-05-02T12:32:39.476Z,28.69
2023-05-02T12:33:39.371Z,28.66
2023-05-02T12:34:39.403Z,28.67
2023-05-02T12:35:39.433Z,28.66
2023-05-02T12:36:39.409Z,28.68
2023-05-02T12:37:39.430Z,28.64
2023-05-02T12:38:39.437Z,28.65
2023-05-02T12:39:39.449Z,28.62
2023-05-02T12:40:39.497Z,28.40
2023-05-02T12:41:39.489Z,28.31
2023-05-02T12:42:39.489Z,28.16
2023-05-02T12:43:39.497Z,28.09
2023-05-02T12:44:39.508Z,28.06
2023-05-02T12:45:39.514Z,28.12
2023-05-02T12:46:39.552Z,28.40
2023-05-02T12:47:39.611Z,28.22
2023-05-02T12:48:39.575Z,28.25
2023-05-02T12:49:39.593Z,28.28
2023-05-02T12:50:39.626Z,28.28
2023-05-02T12:51:39.630Z,28.36
2023-05-02T12:52:39.663Z,28.42
2023-05-02T12:53:39.695Z,28.50